createdAt,value
2022-10-29T00:00:20.883Z,10.50
2022-10-29T00:02:48.385Z,10.53
2022-10-29T00:05:16.132Z,10.53
2022-10-29T00:07:43.683Z,10.57
2022-10-29T00:10:11.234Z,10.52
2022-10-29T00:12:39.040Z,10.57
2022-10-29T00:15:07.607Z,10.55
2022-10-29T00:20:22.120Z,10.53
2022-10-29T00:22:53.224Z,10.51
2022-10-29T00:25:21.559Z,10.55
2022-10-29T00:27:50.575Z,10.57
2022-10-29T00:30:18.901Z,10.57
2022-10-29T00:32:47.333Z,10.63
2022-10-29T00:35:15.348Z,10.73
2022-10-29T00:37:43.143Z,10.57
2022-10-29T00:40:11.896Z,10.71
2022-10-29T00:42:40.340Z,10.72
2022-10-29T00:45:19.480Z,10.67
2022-10-29T00:48:07.328Z,10.57
2022-10-29T00:50:35.593Z,10.54
2022-10-29T00:53:03.274Z,10.56
2022-10-29T00:55:32.248Z,10.64
2022-10-29T00:58:01.052Z,10.67
2022-10-29T01:00:28.730Z,10.61
2022-10-29T01:02:56.519Z,10.54
2022-10-29T01:05:26.153Z,10.56
2022-10-29T01:07:54.493Z,10.52
2022-10-29T01:10:40.816Z,10.56
2022-10-29T01:13:38.200Z,10.47
2022-10-29T01:16:08.524Z,10.44
2022-10-29T01:19:02.705Z,10.46
2022-10-29T01:21:42.883Z,10.50
2022-10-29T01:24:35.400Z,10.50
2022-10-29T01:27:40.001Z,10.46
2022-10-29T01:33:17.012Z,10.52
2022-10-29T01:35:54.938Z,10.45
2022-10-29T01:38:31.321Z,10.55
2022-10-29T01:41:29.776Z,10.54
2022-10-29T01:44:22.769Z,10.54
2022-10-29T01:46:56.385Z,10.46
2022-10-29T01:49:38.830Z,10.54
2022-10-29T01:52:09.201Z,10.51
2022-10-29T01:54:41.173Z,10.50
2022-10-29T01:57:33.327Z,10.52
2022-10-29T02:00:13.800Z,10.51
2022-10-29T02:03:01.476Z,10.51
2022-10-29T02:05:57.710Z,10.54
2022-10-29T02:11:53.046Z,10.51
2022-10-29T02:14:30.574Z,10.51
2022-10-29T02:16:59.574Z,10.54
2022-10-29T02:22:17.101Z,10.54
2022-10-29T02:27:29.821Z,10.58
2022-10-29T02:29:57.758Z,10.60
2022-10-29T02:32:25.647Z,10.60
2022-10-29T02:34:53.579Z,10.59
2022-10-29T02:37:21.664Z,10.53
2022-10-29T02:39:51.290Z,10.56
2022-10-29T02:42:19.213Z,10.56
2022-10-29T02:44:46.768Z,10.60
2022-10-29T02:50:00.244Z,10.45
2022-10-29T02:52:27.978Z,10.45
2022-10-29T02:54:56.098Z,10.32
2022-10-29T02:57:23.771Z,10.34
2022-10-29T03:02:36.715Z,10.23
2022-10-29T03:07:50.579Z,10.16
2022-10-29T03:10:19.513Z,10.11
2022-10-29T03:12:49.076Z,10.13
2022-10-29T03:18:03.212Z,10.14
2022-10-29T03:23:16.580Z,10.03
2022-10-29T03:25:44.280Z,9.96
2022-10-29T03:28:12.079Z,9.97
2022-10-29T03:30:40.424Z,9.98
2022-10-29T03:33:08.660Z,9.92
2022-10-29T03:35:36.331Z,9.96
2022-10-29T03:40:48.743Z,9.97
2022-10-29T03:43:16.842Z,9.99
2022-10-29T03:45:44.682Z,10.01
2022-10-29T03:53:45.196Z,10.00
2022-10-29T03:56:12.702Z,10.01
2022-10-29T03:58:40.415Z,9.99
2022-10-29T04:01:10.171Z,10.01
2022-10-29T04:03:42.535Z,10.03
2022-10-29T04:06:12.875Z,9.95
2022-10-29T04:08:44.257Z,9.93
2022-10-29T04:11:15.082Z,9.93
2022-10-29T04:13:42.574Z,9.95
2022-10-29T04:16:11.252Z,9.94
2022-10-29T04:18:39.262Z,9.98
2022-10-29T04:29:31.801Z,9.97
2022-10-29T04:32:00.854Z,10.00
2022-10-29T04:34:28.487Z,10.01
2022-10-29T04:36:56.479Z,10.04
2022-10-29T04:39:24.400Z,10.05
2022-10-29T04:41:52.072Z,10.08
2022-10-29T04:44:20.282Z,10.06
2022-10-29T04:46:48.057Z,10.14
2022-10-29T04:49:15.668Z,10.13
2022-10-29T04:54:28.575Z,10.25
2022-10-29T04:56:56.325Z,10.25
2022-10-29T04:59:24.117Z,10.18
2022-10-29T05:01:53.812Z,10.21
2022-10-29T05:04:22.220Z,10.23
2022-10-29T05:06:50.004Z,10.34
2022-10-29T05:12:03.810Z,10.34
2022-10-29T05:14:31.564Z,10.36
2022-10-29T05:17:02.889Z,10.39
2022-10-29T05:19:31.076Z,10.46
2022-10-29T05:22:04.458Z,10.44
2022-10-29T05:24:32.520Z,10.43
2022-10-29T05:27:02.365Z,10.50
2022-10-29T05:29:30.123Z,10.52
2022-10-29T05:31:58.046Z,10.50
2022-10-29T05:34:26.172Z,10.55
2022-10-29T05:36:54.333Z,10.55
2022-10-29T05:39:24.406Z,10.69
2022-10-29T05:41:52.188Z,10.74
2022-10-29T05:44:19.935Z,10.71
2022-10-29T05:46:50.722Z,10.81
2022-10-29T05:49:18.492Z,10.81
2022-10-29T05:51:47.312Z,10.85
2022-10-29T05:54:15.575Z,10.88
2022-10-29T05:56:43.091Z,10.92
2022-10-29T06:01:59.558Z,11.05
2022-10-29T06:04:28.805Z,11.03
2022-10-29T06:06:57.373Z,11.12
2022-10-29T06:09:25.299Z,11.16
2022-10-29T06:11:55.638Z,11.27
2022-10-29T06:14:28.349Z,11.35
2022-10-29T06:16:58.051Z,11.36
2022-10-29T06:19:26.372Z,11.49
2022-10-29T06:22:00.306Z,11.53
2022-10-29T06:24:29.389Z,11.63
2022-10-29T06:26:58.086Z,11.63
2022-10-29T06:34:58.760Z,11.84
2022-10-29T06:37:27.583Z,11.93
2022-10-29T06:39:55.680Z,12.05
2022-10-29T06:42:23.333Z,12.16
2022-10-29T06:44:51.445Z,12.24
2022-10-29T06:47:21.711Z,12.33
2022-10-29T06:49:49.627Z,12.52
2022-10-29T06:52:18.547Z,12.51
2022-10-29T07:03:05.588Z,12.49
2022-10-29T07:05:34.586Z,12.50
2022-10-29T07:08:02.628Z,12.57
2022-10-29T07:10:33.974Z,12.58
2022-10-29T07:13:02.004Z,12.59
2022-10-29T07:15:31.326Z,12.65
2022-10-29T07:18:08.417Z,12.73
2022-10-29T07:20:42.357Z,12.63
2022-10-29T07:23:12.191Z,12.74
2022-10-29T07:25:41.539Z,12.77
2022-10-29T07:31:03.867Z,12.98
2022-10-29T07:33:32.232Z,13.00
2022-10-29T07:36:00.880Z,13.07
2022-10-29T07:38:28.792Z,13.17
2022-10-29T07:40:56.476Z,13.15
2022-10-29T07:46:10.040Z,13.22
2022-10-29T07:48:39.216Z,13.32
2022-10-29T07:51:08.063Z,13.32
2022-10-29T07:53:35.724Z,13.42
2022-10-29T07:56:03.359Z,13.46
2022-10-29T08:06:47.638Z,13.76
2022-10-29T08:09:16.157Z,13.69
2022-10-29T08:19:49.095Z,13.72
2022-10-29T08:22:16.751Z,13.78
2022-10-29T08:24:45.023Z,13.77
2022-10-29T08:27:14.655Z,13.74
2022-10-29T08:29:42.760Z,13.82
2022-10-29T08:32:11.599Z,13.77
2022-10-29T08:34:41.506Z,13.74
2022-10-29T08:37:10.285Z,13.70
2022-10-29T08:39:38.999Z,13.61
2022-10-29T08:42:33.669Z,13.59
2022-10-29T08:45:11.336Z,13.59
2022-10-29T08:48:35.864Z,13.43
2022-10-29T08:54:32.104Z,13.57
2022-10-29T08:57:08.960Z,13.63
2022-10-29T09:05:21.128Z,13.78
2022-10-29T09:08:35.905Z,13.80
2022-10-29T09:11:15.438Z,13.91
2022-10-29T09:13:56.186Z,13.97
2022-10-29T09:23:10.017Z,14.90
2022-10-29T09:25:50.838Z,14.60
2022-10-29T09:28:42.087Z,14.46
2022-10-29T09:37:00.054Z,14.53
2022-10-29T09:39:34.536Z,14.38
2022-10-29T09:42:09.069Z,14.35
2022-10-29T09:44:59.174Z,14.25
2022-10-29T09:53:28.346Z,14.21
2022-10-29T09:55:56.846Z,14.23
2022-10-29T09:58:28.543Z,14.15
2022-10-29T10:00:57.461Z,14.21
2022-10-29T10:03:45.979Z,14.25
2022-10-29T10:06:16.157Z,14.26
2022-10-29T10:09:04.870Z,14.32
2022-10-29T10:11:49.551Z,14.27
2022-10-29T10:14:22.271Z,14.40
2022-10-29T10:19:49.023Z,14.57
2022-10-29T10:22:25.665Z,14.55
2022-10-29T10:24:55.010Z,14.54
2022-10-29T10:27:32.862Z,14.42
2022-10-29T10:30:05.372Z,14.41
2022-10-29T10:32:33.791Z,14.54
2022-10-29T10:35:02.736Z,14.60
2022-10-29T10:37:34.275Z,14.48
2022-10-29T10:40:06.302Z,14.59
2022-10-29T10:42:42.996Z,14.50
2022-10-29T10:50:33.130Z,14.54
2022-10-29T10:53:17.698Z,14.49
2022-10-29T10:55:52.892Z,14.56
2022-10-29T11:01:53.096Z,14.83
2022-10-29T11:04:30.826Z,14.91
2022-10-29T11:07:05.662Z,15.13
2022-10-29T11:09:49.405Z,15.32
2022-10-29T11:12:44.513Z,15.57
2022-10-29T11:15:22.307Z,15.65
2022-10-29T11:18:02.661Z,15.83
2022-10-29T11:24:09.860Z,15.58
2022-10-29T11:29:55.253Z,15.58
2022-10-29T11:32:46.916Z,15.47
2022-10-29T11:38:23.902Z,15.56
2022-10-29T11:41:08.094Z,15.44
2022-10-29T11:43:37.408Z,15.62
2022-10-29T11:46:32.041Z,15.61
2022-10-29T11:49:25.681Z,15.75
2022-10-29T11:52:20.708Z,15.77
2022-10-29T11:55:10.584Z,16.00
2022-10-29T11:57:58.771Z,16.09
2022-10-29T12:00:32.737Z,16.27
2022-10-29T12:03:20.079Z,16.47
2022-10-29T12:06:03.835Z,16.50
2022-10-29T12:08:35.491Z,16.67
2022-10-29T12:11:32.377Z,16.87
2022-10-29T12:23:50.050Z,16.87
2022-10-29T12:29:29.788Z,17.22
2022-10-29T12:32:26.873Z,17.17
2022-10-29T12:35:40.010Z,17.16
2022-10-29T12:38:31.298Z,17.35
2022-10-29T12:41:10.454Z,17.05
2022-10-29T12:43:40.510Z,16.83
2022-10-29T12:46:20.743Z,17.07
2022-10-29T12:49:26.349Z,16.86
2022-10-29T12:52:04.320Z,16.98
2022-10-29T12:54:43.256Z,17.19
2022-10-29T12:57:14.608Z,17.48
2022-10-29T12:59:44.196Z,17.95
2022-10-29T13:02:29.020Z,18.08
2022-10-29T13:05:14.327Z,18.32
2022-10-29T13:07:48.172Z,18.30
2022-10-29T13:10:22.252Z,18.05
2022-10-29T13:13:01.540Z,17.79
2022-10-29T13:18:38.981Z,17.17
2022-10-29T13:21:11.821Z,16.69
2022-10-29T13:23:43.640Z,16.95
2022-10-29T13:26:12.483Z,16.96
2022-10-29T13:28:40.445Z,16.87
2022-10-29T13:31:08.847Z,16.82
2022-10-29T13:33:36.768Z,16.77
2022-10-29T13:39:20.925Z,16.55
2022-10-29T13:41:53.188Z,16.37
2022-10-29T13:44:24.201Z,16.31
2022-10-29T13:49:44.595Z,16.18
2022-10-29T13:52:15.481Z,16.07
2022-10-29T13:55:07.812Z,15.97
2022-10-29T13:58:06.603Z,15.92
2022-10-29T14:00:38.693Z,15.86
2022-10-29T14:09:52.117Z,15.57
2022-10-29T14:12:26.434Z,15.56
2022-10-29T14:17:53.848Z,15.49
2022-10-29T14:23:16.171Z,15.40
2022-10-29T14:25:51.939Z,15.37
2022-10-29T14:28:27.939Z,15.33
2022-10-29T14:31:16.296Z,15.32
2022-10-29T14:33:49.753Z,15.27
2022-10-29T14:36:28.394Z,15.22
2022-10-29T14:39:28.819Z,15.16
2022-10-29T14:42:01.730Z,15.18
2022-10-29T14:44:33.166Z,15.13
2022-10-29T14:47:06.119Z,15.07
2022-10-29T14:49:41.231Z,15.08
2022-10-29T14:52:27.898Z,15.02
2022-10-29T14:55:00.092Z,14.98
2022-10-29T14:57:35.657Z,14.96
2022-10-29T15:00:07.624Z,14.89
2022-10-29T15:02:40.439Z,14.88
2022-10-29T15:05:30.110Z,14.81
2022-10-29T15:08:11.082Z,14.78
2022-10-29T15:10:53.962Z,14.63
2022-10-29T15:13:30.243Z,14.63
2022-10-29T15:16:19.546Z,14.59
2022-10-29T15:27:15.276Z,14.45
2022-10-29T15:29:49.638Z,14.46
2022-10-29T15:32:20.067Z,14.43
2022-10-29T15:34:58.304Z,14.35
2022-10-29T15:40:27.622Z,14.19
2022-10-29T15:45:57.678Z,14.16
2022-10-29T15:48:37.514Z,14.14
2022-10-29T15:51:07.908Z,14.05
2022-10-29T15:53:37.179Z,14.00
2022-10-29T15:56:08.344Z,14.08
2022-10-29T15:58:51.181Z,14.01
2022-10-29T16:01:20.415Z,13.99
2022-10-29T16:04:05.373Z,13.97
2022-10-29T16:06:39.115Z,13.98
2022-10-29T16:09:21.729Z,13.82
2022-10-29T16:11:53.298Z,13.80
2022-10-29T16:14:23.422Z,13.80
2022-10-29T16:19:55.992Z,13.64
2022-10-29T16:22:37.567Z,13.68
2022-10-29T16:25:07.339Z,13.65
2022-10-29T16:27:39.915Z,13.49
2022-10-29T16:30:08.601Z,13.52
2022-10-29T16:35:38.635Z,13.44
2022-10-29T16:43:49.620Z,13.28
2022-10-29T16:51:52.288Z,13.24
2022-10-29T16:54:19.902Z,13.25
2022-10-29T16:56:50.827Z,13.26
2022-10-29T16:59:19.423Z,13.25
2022-10-29T17:01:49.730Z,13.29
2022-10-29T17:07:04.313Z,13.31
2022-10-29T17:09:35.542Z,13.30
2022-10-29T17:14:56.761Z,13.37
2022-10-29T17:23:01.567Z,13.27
2022-10-29T17:25:44.809Z,13.30
2022-10-29T17:28:15.025Z,13.28
2022-10-29T17:33:31.834Z,13.36
2022-10-29T17:39:08.334Z,13.28
2022-10-29T17:41:44.107Z,13.27
2022-10-29T17:44:13.899Z,13.20
2022-10-29T17:49:42.055Z,13.21
2022-10-29T17:52:10.455Z,13.17
2022-10-29T17:54:40.980Z,13.20
2022-10-29T17:59:55.409Z,13.07
2022-10-29T18:02:23.655Z,12.98
2022-10-29T18:04:53.214Z,12.99
2022-10-29T18:07:23.700Z,12.90
2022-10-29T18:10:08.109Z,12.92
2022-10-29T18:12:39.901Z,12.88
2022-10-29T18:15:12.679Z,12.80
2022-10-29T18:20:51.262Z,12.86
2022-10-29T18:29:13.384Z,12.80
2022-10-29T18:34:39.114Z,12.78
2022-10-29T18:37:10.495Z,12.74
2022-10-29T18:40:02.608Z,12.76
2022-10-29T18:45:20.829Z,12.67
2022-10-29T18:47:50.465Z,12.68
2022-10-29T18:53:10.706Z,12.69
2022-10-29T18:55:58.781Z,12.64
2022-10-29T18:58:38.038Z,12.67
2022-10-29T19:01:14.897Z,12.58
2022-10-29T19:06:45.373Z,12.76
2022-10-29T19:09:16.788Z,12.71
2022-10-29T19:11:47.602Z,12.67
2022-10-29T19:17:02.574Z,12.69
2022-10-29T19:19:32.363Z,12.69
2022-10-29T19:22:00.436Z,12.66
2022-10-29T19:32:47.494Z,12.71
2022-10-29T19:35:15.577Z,12.65
2022-10-29T19:37:45.746Z,12.74
2022-10-29T19:40:14.226Z,12.77
2022-10-29T19:42:42.499Z,12.80
2022-10-29T19:45:11.482Z,12.81
2022-10-29T19:47:41.998Z,12.81
2022-10-29T19:50:10.324Z,12.80
2022-10-29T19:52:39.022Z,12.84
2022-10-29T19:55:08.336Z,12.77
2022-10-29T19:57:36.854Z,12.79
2022-10-29T20:00:05.630Z,12.80
2022-10-29T20:02:33.338Z,12.83
2022-10-29T20:05:02.083Z,12.83
2022-10-29T20:07:30.620Z,12.83
2022-10-29T20:10:00.120Z,12.83
2022-10-29T20:12:28.216Z,12.83
2022-10-29T20:14:56.727Z,12.77
2022-10-29T20:20:15.813Z,12.76
2022-10-29T20:22:46.399Z,12.76
2022-10-29T20:25:15.370Z,12.83
2022-10-29T20:27:45.565Z,12.84
2022-10-29T20:30:13.816Z,12.73
2022-10-29T20:32:42.025Z,12.82
2022-10-29T20:37:55.654Z,12.91
2022-10-29T20:40:23.541Z,12.90
2022-10-29T20:42:51.669Z,12.86
2022-10-29T20:48:05.688Z,12.87
2022-10-29T20:50:33.424Z,12.94
2022-10-29T20:53:01.928Z,12.97
2022-10-29T20:55:29.670Z,12.94
2022-10-29T21:00:43.332Z,12.94
2022-10-29T21:03:18.419Z,12.91
2022-10-29T21:08:34.756Z,12.99
2022-10-29T21:11:12.775Z,12.93
2022-10-29T21:13:40.611Z,12.83
2022-10-29T21:19:06.416Z,12.87
2022-10-29T21:21:33.885Z,12.83
2022-10-29T21:26:47.061Z,12.87
2022-10-29T21:29:14.746Z,12.81
2022-10-29T21:34:28.266Z,12.86
2022-10-29T21:36:56.071Z,12.80
2022-10-29T21:42:12.037Z,12.85
2022-10-29T21:44:39.683Z,12.79
2022-10-29T21:47:07.600Z,12.80
2022-10-29T21:49:34.993Z,12.84
2022-10-29T21:52:02.962Z,12.88
2022-10-29T21:54:30.926Z,12.86
2022-10-29T21:56:58.335Z,12.84
2022-10-29T21:59:25.953Z,12.93
2022-10-29T22:01:54.084Z,12.96
2022-10-29T22:07:07.646Z,12.91
2022-10-29T22:09:37.742Z,12.89
2022-10-29T22:12:08.381Z,12.83
2022-10-29T22:14:39.920Z,12.78
2022-10-29T22:17:07.941Z,12.73
2022-10-29T22:19:35.926Z,12.69
2022-10-29T22:22:04.142Z,12.75
2022-10-29T22:24:31.977Z,12.73
2022-10-29T22:27:00.447Z,12.77
2022-10-29T22:29:28.436Z,12.87
2022-10-29T22:31:56.378Z,12.83
2022-10-29T22:34:23.994Z,12.72
2022-10-29T22:36:52.514Z,12.81
2022-10-29T22:39:22.181Z,12.72
2022-10-29T22:44:35.065Z,12.74
2022-10-29T22:47:03.458Z,12.67
2022-10-29T22:49:32.609Z,12.63
2022-10-29T22:54:45.618Z,12.76
2022-10-29T22:57:13.187Z,12.74
2022-10-29T22:59:41.329Z,12.71
2022-10-29T23:02:11.224Z,12.66
2022-10-29T23:07:27.481Z,12.69
2022-10-29T23:09:56.551Z,12.60
2022-10-29T23:12:24.311Z,12.53
2022-10-29T23:14:54.876Z,12.63
2022-10-29T23:17:23.020Z,12.51
2022-10-29T23:19:56.273Z,12.52
2022-10-29T23:22:26.500Z,12.57
2022-10-29T23:24:57.033Z,12.51
2022-10-29T23:27:25.956Z,12.55
2022-10-29T23:32:39.849Z,12.60
2022-10-29T23:35:07.950Z,12.54
2022-10-29T23:37:36.081Z,12.53
2022-10-29T23:40:04.179Z,12.49
2022-10-29T23:42:32.573Z,12.52
2022-10-29T23:45:07.681Z,12.59
2022-10-29T23:50:25.921Z,12.62
2022-10-29T23:52:53.719Z,12.62
2022-10-29T23:55:21.598Z,12.60
2022-10-29T23:57:49.661Z,12.52
